sensor_id;sensor_type;location;lat;lon;timestamp;P1;durP1;ratioP1;P2;durP2;ratioP2
53203;SDS011;39086;54.424;18.456;2023-02-10T00:00:39;25.15;;;11.70;;
53203;SDS011;39086;54.424;18.456;2023-02-10T00:01:43;19.83;;;10.60;;
53203;SDS011;39086;54.424;18.456;2023-02-10T00:02:46;25.90;;;11.90;;
53203;SDS011;39086;54.424;18.456;2023-02-10T00:03:56;19.10;;;9.93;;
53203;SDS011;39086;54.424;18.456;2023-02-10T00:04:59;21.38;;;11.48;;
53203;SDS011;39086;54.424;18.456;2023-02-10T00:06:02;22.42;;;10.65;;
53203;SDS011;39086;54.424;18.456;2023-02-10T00:07:06;26.02;;;11.73;;
53203;SDS011;39086;54.424;18.456;2023-02-10T00:08:15;27.55;;;11.43;;
53203;SDS011;39086;54.424;18.456;2023-02-10T00:09:18;23.20;;;11.40;;
53203;SDS011;39086;54.424;18.456;2023-02-10T00:10:21;25.50;;;11.68;;
53203;SDS011;39086;54.424;18.456;2023-02-10T00:11:24;25.55;;;12.07;;
53203;SDS011;39086;54.424;18.456;2023-02-10T00:12:43;20.27;;;11.43;;
53203;SDS011;39086;54.424;18.456;2023-02-10T00:13:54;23.58;;;11.63;;
53203;SDS011;39086;54.424;18.456;2023-02-10T00:14:56;20.95;;;10.88;;
53203;SDS011;39086;54.424;18.456;2023-02-10T00:16:00;23.42;;;12.50;;
53203;SDS011;39086;54.424;18.456;2023-02-10T00:17:03;26.52;;;12.13;;
53203;SDS011;39086;54.424;18.456;2023-02-10T00:18:06;26.10;;;12.18;;
53203;SDS011;39086;54.424;18.456;2023-02-10T00:19:16;23.42;;;11.35;;
53203;SDS011;39086;54.424;18.456;2023-02-10T00:20:19;23.48;;;11.88;;
53203;SDS011;39086;54.424;18.456;2023-02-10T00:21:22;21.13;;;11.50;;
53203;SDS011;39086;54.424;18.456;2023-02-10T00:22:25;25.88;;;12.20;;
53203;SDS011;39086;54.424;18.456;2023-02-10T00:23:35;20.45;;;11.18;;
53203;SDS011;39086;54.424;18.456;2023-02-10T00:24:38;22.65;;;11.15;;
53203;SDS011;39086;54.424;18.456;2023-02-10T00:25:40;20.95;;;11.52;;
53203;SDS011;39086;54.424;18.456;2023-02-10T00:26:44;22.73;;;11.50;;
53203;SDS011;39086;54.424;18.456;2023-02-10T00:27:48;26.00;;;12.38;;
53203;SDS011;39086;54.424;18.456;2023-02-10T00:28:58;29.23;;;12.13;;
53203;SDS011;39086;54.424;18.456;2023-02-10T00:30:07;26.60;;;11.77;;
53203;SDS011;39086;54.424;18.456;2023-02-10T00:31:11;22.70;;;11.65;;
53203;SDS011;39086;54.424;18.456;2023-02-10T00:32:14;25.83;;;12.43;;
53203;SDS011;39086;54.424;18.456;2023-02-10T00:33:25;27.02;;;12.13;;
53203;SDS011;39086;54.424;18.456;2023-02-10T00:34:27;23.15;;;11.60;;
53203;SDS011;39086;54.424;18.456;2023-02-10T00:35:31;25.08;;;14.20;;
53203;SDS011;39086;54.424;18.456;2023-02-10T00:36:33;28.77;;;12.98;;
53203;SDS011;39086;54.424;18.456;2023-02-10T00:37:38;25.67;;;12.75;;
53203;SDS011;39086;54.424;18.456;2023-02-10T00:38:47;26.85;;;12.88;;
53203;SDS011;39086;54.424;18.456;2023-02-10T00:39:50;24.73;;;12.73;;
53203;SDS011;39086;54.424;18.456;2023-02-10T00:40:54;23.63;;;12.63;;
53203;SDS011;39086;54.424;18.456;2023-02-10T00:41:56;30.60;;;14.23;;
53203;SDS011;39086;54.424;18.456;2023-02-10T00:43:08;32.38;;;15.05;;
53203;SDS011;39086;54.424;18.456;2023-02-10T00:44:10;29.92;;;13.52;;
53203;SDS011;39086;54.424;18.456;2023-02-10T00:45:14;31.20;;;14.20;;
53203;SDS011;39086;54.424;18.456;2023-02-10T00:46:18;34.50;;;14.73;;
53203;SDS011;39086;54.424;18.456;2023-02-10T00:47:21;36.25;;;14.48;;
53203;SDS011;39086;54.424;18.456;2023-02-10T00:48:34;26.42;;;11.55;;
53203;SDS011;39086;54.424;18.456;2023-02-10T00:49:36;24.98;;;13.50;;
53203;SDS011;39086;54.424;18.456;2023-02-10T00:50:47;28.90;;;12.77;;
53203;SDS011;39086;54.424;18.456;2023-02-10T00:51:55;28.27;;;12.48;;
53203;SDS011;39086;54.424;18.456;2023-02-10T00:53:12;27.25;;;12.88;;
53203;SDS011;39086;54.424;18.456;2023-02-10T00:54:15;31.15;;;13.70;;
53203;SDS011;39086;54.424;18.456;2023-02-10T00:55:18;30.23;;;13.25;;
53203;SDS011;39086;54.424;18.456;2023-02-10T00:56:28;30.50;;;13.00;;
53203;SDS011;39086;54.424;18.456;2023-02-10T00:57:31;32.80;;;14.65;;
53203;SDS011;39086;54.424;18.456;2023-02-10T00:58:35;28.23;;;13.02;;
53203;SDS011;39086;54.424;18.456;2023-02-10T00:59:39;32.30;;;14.82;;
53203;SDS011;39086;54.424;18.456;2023-02-10T01:00:41;27.85;;;14.13;;
53203;SDS011;39086;54.424;18.456;2023-02-10T01:01:52;27.50;;;12.95;;
53203;SDS011;39086;54.424;18.456;2023-02-10T01:02:55;28.38;;;14.40;;
53203;SDS011;39086;54.424;18.456;2023-02-10T01:03:58;36.50;;;15.25;;
53203;SDS011;39086;54.424;18.456;2023-02-10T01:05:01;33.95;;;13.85;;
53203;SDS011;39086;54.424;18.456;2023-02-10T01:06:05;31.00;;;14.98;;
53203;SDS011;39086;54.424;18.456;2023-02-10T01:07:15;29.92;;;13.63;;
53203;SDS011;39086;54.424;18.456;2023-02-10T01:08:25;30.27;;;14.93;;
53203;SDS011;39086;54.424;18.456;2023-02-10T01:09:27;33.08;;;14.52;;
53203;SDS011;39086;54.424;18.456;2023-02-10T01:10:31;32.55;;;14.73;;
53203;SDS011;39086;54.424;18.456;2023-02-10T01:11:36;32.05;;;14.55;;
53203;SDS011;39086;54.424;18.456;2023-02-10T01:12:40;31.67;;;15.05;;
53203;SDS011;39086;54.424;18.456;2023-02-10T01:13:50;37.33;;;15.18;;
53203;SDS011;39086;54.424;18.456;2023-02-10T01:14:53;27.80;;;13.82;;
53203;SDS011;39086;54.424;18.456;2023-02-10T01:15:56;27.60;;;14.32;;
53203;SDS011;39086;54.424;18.456;2023-02-10T01:17:00;31.77;;;15.38;;
53203;SDS011;39086;54.424;18.456;2023-02-10T01:18:11;27.70;;;13.80;;
53203;SDS011;39086;54.424;18.456;2023-02-10T01:19:14;27.67;;;14.30;;
53203;SDS011;39086;54.424;18.456;2023-02-10T01:20:17;33.65;;;15.98;;
53203;SDS011;39086;54.424;18.456;2023-02-10T01:21:21;29.73;;;14.80;;
53203;SDS011;39086;54.424;18.456;2023-02-10T01:22:24;32.22;;;14.98;;
53203;SDS011;39086;54.424;18.456;2023-02-10T01:23:34;33.55;;;14.13;;
53203;SDS011;39086;54.424;18.456;2023-02-10T01:24:37;32.58;;;16.17;;
53203;SDS011;39086;54.424;18.456;2023-02-10T01:25:40;33.85;;;14.82;;
53203;SDS011;39086;54.424;18.456;2023-02-10T01:26:43;30.77;;;14.25;;
53203;SDS011;39086;54.424;18.456;2023-02-10T01:27:46;31.40;;;14.63;;
53203;SDS011;39086;54.424;18.456;2023-02-10T01:28:57;33.47;;;15.57;;
53203;SDS011;39086;54.424;18.456;2023-02-10T01:30:01;30.42;;;14.82;;
53203;SDS011;39086;54.424;18.456;2023-02-10T01:31:04;30.60;;;15.05;;
53203;SDS011;39086;54.424;18.456;2023-02-10T01:32:08;33.10;;;14.15;;
53203;SDS011;39086;54.424;18.456;2023-02-10T01:33:11;35.72;;;14.77;;
53203;SDS011;39086;54.424;18.456;2023-02-10T01:34:21;33.65;;;15.32;;
53203;SDS011;39086;54.424;18.456;2023-02-10T01:35:31;29.88;;;13.85;;
53203;SDS011;39086;54.424;18.456;2023-02-10T01:36:33;30.05;;;13.60;;
53203;SDS011;39086;54.424;18.456;2023-02-10T01:37:37;30.27;;;13.38;;
53203;SDS011;39086;54.424;18.456;2023-02-10T01:38:39;30.00;;;14.40;;
53203;SDS011;39086;54.424;18.456;2023-02-10T01:39:43;29.70;;;14.90;;
53203;SDS011;39086;54.424;18.456;2023-02-10T01:40:55;29.50;;;13.98;;
53203;SDS011;39086;54.424;18.456;2023-02-10T01:41:58;29.55;;;13.38;;
53203;SDS011;39086;54.424;18.456;2023-02-10T01:43:02;32.90;;;14.65;;
53203;SDS011;39086;54.424;18.456;2023-02-10T01:44:55;25.77;;;13.88;;
53203;SDS011;39086;54.424;18.456;2023-02-10T01:45:36;28.45;;;13.85;;
53203;SDS011;39086;54.424;18.456;2023-02-10T01:46:40;30.00;;;14.32;;
53203;SDS011;39086;54.424;18.456;2023-02-10T01:47:43;31.13;;;14.40;;
53203;SDS011;39086;54.424;18.456;2023-02-10T01:48:47;32.58;;;13.82;;
53203;SDS011;39086;54.424;18.456;2023-02-10T01:49:50;31.70;;;14.32;;
53203;SDS011;39086;54.424;18.456;2023-02-10T01:51:06;31.52;;;14.82;;
53203;SDS011;39086;54.424;18.456;2023-02-10T01:52:24;32.03;;;13.32;;
53203;SDS011;39086;54.424;18.456;2023-02-10T01:53:30;31.70;;;14.43;;
53203;SDS011;39086;54.424;18.456;2023-02-10T01:54:35;32.03;;;14.48;;
53203;SDS011;39086;54.424;18.456;2023-02-10T01:55:39;32.38;;;14.48;;
53203;SDS011;39086;54.424;18.456;2023-02-10T01:56:51;29.33;;;13.98;;
53203;SDS011;39086;54.424;18.456;2023-02-10T01:57:54;29.40;;;13.80;;
53203;SDS011;39086;54.424;18.456;2023-02-10T01:58:57;32.55;;;14.60;;
53203;SDS011;39086;54.424;18.456;2023-02-10T02:00:04;24.83;;;12.05;;
53203;SDS011;39086;54.424;18.456;2023-02-10T02:01:15;28.63;;;14.07;;
53203;SDS011;39086;54.424;18.456;2023-02-10T02:02:19;26.48;;;13.50;;
53203;SDS011;39086;54.424;18.456;2023-02-10T02:03:22;27.90;;;13.77;;
53203;SDS011;39086;54.424;18.456;2023-02-10T02:04:30;30.33;;;14.18;;
53203;SDS011;39086;54.424;18.456;2023-02-10T02:05:33;32.63;;;14.20;;
53203;SDS011;39086;54.424;18.456;2023-02-10T02:06:44;25.25;;;13.05;;
53203;SDS011;39086;54.424;18.456;2023-02-10T02:07:47;27.40;;;12.32;;
53203;SDS011;39086;54.424;18.456;2023-02-10T02:08:50;27.95;;;13.45;;
53203;SDS011;39086;54.424;18.456;2023-02-10T02:09:54;30.45;;;13.68;;
53203;SDS011;39086;54.424;18.456;2023-02-10T02:11:03;29.20;;;13.75;;
53203;SDS011;39086;54.424;18.456;2023-02-10T02:12:16;30.20;;;13.38;;
53203;SDS011;39086;54.424;18.456;2023-02-10T02:13:25;28.08;;;13.68;;
53203;SDS011;39086;54.424;18.456;2023-02-10T02:14:33;29.75;;;12.85;;
53203;SDS011;39086;54.424;18.456;2023-02-10T02:15:40;33.05;;;13.20;;
53203;SDS011;39086;54.424;18.456;2023-02-10T02:16:52;32.92;;;13.95;;
53203;SDS011;39086;54.424;18.456;2023-02-10T02:18:06;26.38;;;13.10;;
53203;SDS011;39086;54.424;18.456;2023-02-10T02:19:17;32.15;;;14.38;;
53203;SDS011;39086;54.424;18.456;2023-02-10T02:20:44;24.98;;;12.70;;
53203;SDS011;39086;54.424;18.456;2023-02-10T02:24:41;29.23;;;13.45;;
53203;SDS011;39086;54.424;18.456;2023-02-10T02:27:13;30.17;;;13.07;;
53203;SDS011;39086;54.424;18.456;2023-02-10T02:28:21;28.92;;;12.48;;
53203;SDS011;39086;54.424;18.456;2023-02-10T02:29:39;26.33;;;13.38;;
53203;SDS011;39086;54.424;18.456;2023-02-10T02:32:09;31.00;;;13.27;;
53203;SDS011;39086;54.424;18.456;2023-02-10T02:33:14;29.20;;;12.98;;
53203;SDS011;39086;54.424;18.456;2023-02-10T02:34:21;31.17;;;13.15;;
53203;SDS011;39086;54.424;18.456;2023-02-10T02:35:35;26.77;;;12.55;;
53203;SDS011;39086;54.424;18.456;2023-02-10T02:36:40;28.33;;;13.55;;
53203;SDS011;39086;54.424;18.456;2023-02-10T02:37:44;25.65;;;12.65;;
53203;SDS011;39086;54.424;18.456;2023-02-10T02:38:48;25.45;;;13.38;;
53203;SDS011;39086;54.424;18.456;2023-02-10T02:39:52;28.40;;;13.43;;
53203;SDS011;39086;54.424;18.456;2023-02-10T02:41:04;30.23;;;14.38;;
53203;SDS011;39086;54.424;18.456;2023-02-10T02:42:13;26.33;;;13.07;;
53203;SDS011;39086;54.424;18.456;2023-02-10T02:43:16;30.13;;;12.93;;
53203;SDS011;39086;54.424;18.456;2023-02-10T02:44:20;29.08;;;14.07;;
53203;SDS011;39086;54.424;18.456;2023-02-10T02:45:25;27.67;;;13.32;;
53203;SDS011;39086;54.424;18.456;2023-02-10T02:46:39;28.30;;;12.52;;
53203;SDS011;39086;54.424;18.456;2023-02-10T02:47:56;30.13;;;12.88;;
53203;SDS011;39086;54.424;18.456;2023-02-10T02:49:05;27.92;;;13.43;;
53203;SDS011;39086;54.424;18.456;2023-02-10T02:50:16;29.65;;;12.40;;
53203;SDS011;39086;54.424;18.456;2023-02-10T02:51:39;27.30;;;12.55;;
53203;SDS011;39086;54.424;18.456;2023-02-10T02:53:04;32.63;;;12.75;;
53203;SDS011;39086;54.424;18.456;2023-02-10T02:54:10;28.17;;;12.35;;
53203;SDS011;39086;54.424;18.456;2023-02-10T02:55:21;27.63;;;12.68;;
53203;SDS011;39086;54.424;18.456;2023-02-10T02:56:30;34.10;;;14.40;;
53203;SDS011;39086;54.424;18.456;2023-02-10T02:57:44;26.58;;;12.23;;
53203;SDS011;39086;54.424;18.456;2023-02-10T02:58:51;29.77;;;13.43;;
53203;SDS011;39086;54.424;18.456;2023-02-10T02:59:56;29.20;;;13.00;;
53203;SDS011;39086;54.424;18.456;2023-02-10T03:01:02;32.53;;;12.98;;
53203;SDS011;39086;54.424;18.456;2023-02-10T03:02:14;28.10;;;13.45;;
53203;SDS011;39086;54.424;18.456;2023-02-10T03:03:22;29.13;;;12.65;;
53203;SDS011;39086;54.424;18.456;2023-02-10T03:04:26;29.05;;;13.00;;
53203;SDS011;39086;54.424;18.456;2023-02-10T03:05:32;26.02;;;12.48;;
53203;SDS011;39086;54.424;18.456;2023-02-10T03:06:34;26.02;;;12.32;;
53203;SDS011;39086;54.424;18.456;2023-02-10T03:07:45;33.50;;;13.15;;
53203;SDS011;39086;54.424;18.456;2023-02-10T03:08:47;24.45;;;12.00;;
53203;SDS011;39086;54.424;18.456;2023-02-10T03:09:51;29.38;;;13.30;;
53203;SDS011;39086;54.424;18.456;2023-02-10T03:10:54;30.00;;;13.70;;
53203;SDS011;39086;54.424;18.456;2023-02-10T03:11:57;28.55;;;13.27;;
53203;SDS011;39086;54.424;18.456;2023-02-10T03:13:07;22.05;;;11.70;;
53203;SDS011;39086;54.424;18.456;2023-02-10T03:14:10;29.23;;;14.07;;
53203;SDS011;39086;54.424;18.456;2023-02-10T03:15:13;29.75;;;13.55;;
53203;SDS011;39086;54.424;18.456;2023-02-10T03:16:16;29.02;;;12.80;;
53203;SDS011;39086;54.424;18.456;2023-02-10T03:17:19;31.75;;;13.70;;
53203;SDS011;39086;54.424;18.456;2023-02-10T03:18:30;28.27;;;13.27;;
53203;SDS011;39086;54.424;18.456;2023-02-10T03:19:32;31.35;;;13.55;;
53203;SDS011;39086;54.424;18.456;2023-02-10T03:20:36;30.90;;;12.27;;
53203;SDS011;39086;54.424;18.456;2023-02-10T03:21:38;29.08;;;14.30;;
53203;SDS011;39086;54.424;18.456;2023-02-10T03:22:42;25.50;;;12.20;;
53203;SDS011;39086;54.424;18.456;2023-02-10T03:23:52;30.52;;;13.73;;
53203;SDS011;39086;54.424;18.456;2023-02-10T03:24:55;28.63;;;12.35;;
53203;SDS011;39086;54.424;18.456;2023-02-10T03:25:58;29.50;;;12.10;;
53203;SDS011;39086;54.424;18.456;2023-02-10T03:27:01;30.80;;;13.65;;
53203;SDS011;39086;54.424;18.456;2023-02-10T03:28:06;24.42;;;12.73;;
53203;SDS011;39086;54.424;18.456;2023-02-10T03:29:16;30.33;;;13.00;;
53203;SDS011;39086;54.424;18.456;2023-02-10T03:30:26;25.25;;;13.07;;
53203;SDS011;39086;54.424;18.456;2023-02-10T03:31:29;29.63;;;12.98;;
53203;SDS011;39086;54.424;18.456;2023-02-10T03:32:32;26.80;;;13.27;;
53203;SDS011;39086;54.424;18.456;2023-02-10T03:33:37;28.60;;;13.00;;
53203;SDS011;39086;54.424;18.456;2023-02-10T03:34:39;32.22;;;14.00;;
53203;SDS011;39086;54.424;18.456;2023-02-10T03:35:50;31.02;;;13.18;;
53203;SDS011;39086;54.424;18.456;2023-02-10T03:36:55;29.20;;;14.20;;
53203;SDS011;39086;54.424;18.456;2023-02-10T03:37:59;26.58;;;11.90;;
53203;SDS011;39086;54.424;18.456;2023-02-10T03:39:02;27.35;;;13.45;;
53203;SDS011;39086;54.424;18.456;2023-02-10T03:40:12;27.85;;;13.07;;
53203;SDS011;39086;54.424;18.456;2023-02-10T03:41:15;26.95;;;13.00;;
53203;SDS011;39086;54.424;18.456;2023-02-10T03:42:18;28.02;;;13.25;;
53203;SDS011;39086;54.424;18.456;2023-02-10T03:43:21;31.00;;;13.82;;
53203;SDS011;39086;54.424;18.456;2023-02-10T03:44:24;25.92;;;12.65;;
53203;SDS011;39086;54.424;18.456;2023-02-10T03:45:34;31.17;;;13.00;;
53203;SDS011;39086;54.424;18.456;2023-02-10T03:46:37;27.00;;;12.35;;
53203;SDS011;39086;54.424;18.456;2023-02-10T03:47:40;23.67;;;11.85;;
53203;SDS011;39086;54.424;18.456;2023-02-10T03:48:44;29.95;;;11.90;;
53203;SDS011;39086;54.424;18.456;2023-02-10T03:49:48;28.67;;;13.40;;
53203;SDS011;39086;54.424;18.456;2023-02-10T03:50:57;29.15;;;12.85;;
53203;SDS011;39086;54.424;18.456;2023-02-10T03:52:07;29.50;;;13.55;;
53203;SDS011;39086;54.424;18.456;2023-02-10T03:53:17;28.88;;;12.32;;
53203;SDS011;39086;54.424;18.456;2023-02-10T03:54:27;26.15;;;12.65;;
53203;SDS011;39086;54.424;18.456;2023-02-10T03:55:30;29.58;;;12.38;;
53203;SDS011;39086;54.424;18.456;2023-02-10T03:56:40;27.73;;;12.25;;
53203;SDS011;39086;54.424;18.456;2023-02-10T03:57:42;29.70;;;12.68;;
53203;SDS011;39086;54.424;18.456;2023-02-10T03:58:46;29.60;;;13.02;;
53203;SDS011;39086;54.424;18.456;2023-02-10T03:59:55;25.33;;;12.77;;
53203;SDS011;39086;54.424;18.456;2023-02-10T04:01:08;28.83;;;12.48;;
53203;SDS011;39086;54.424;18.456;2023-02-10T04:02:11;30.60;;;13.25;;
53203;SDS011;39086;54.424;18.456;2023-02-10T04:03:15;26.45;;;13.45;;
53203;SDS011;39086;54.424;18.456;2023-02-10T04:04:19;27.73;;;12.10;;
53203;SDS011;39086;54.424;18.456;2023-02-10T04:05:22;27.45;;;12.88;;
53203;SDS011;39086;54.424;18.456;2023-02-10T04:06:32;29.85;;;13.40;;
53203;SDS011;39086;54.424;18.456;2023-02-10T04:07:35;35.03;;;13.60;;
53203;SDS011;39086;54.424;18.456;2023-02-10T04:08:38;27.75;;;13.07;;
53203;SDS011;39086;54.424;18.456;2023-02-10T04:09:42;31.83;;;13.27;;
53203;SDS011;39086;54.424;18.456;2023-02-10T04:10:44;23.95;;;12.63;;
53203;SDS011;39086;54.424;18.456;2023-02-10T04:11:55;28.80;;;13.38;;
53203;SDS011;39086;54.424;18.456;2023-02-10T04:13:05;25.85;;;12.38;;
53203;SDS011;39086;54.424;18.456;2023-02-10T04:14:08;27.25;;;12.80;;
53203;SDS011;39086;54.424;18.456;2023-02-10T04:15:18;30.77;;;13.00;;
53203;SDS011;39086;54.424;18.456;2023-02-10T04:16:21;30.15;;;12.95;;
53203;SDS011;39086;54.424;18.456;2023-02-10T04:17:35;29.98;;;12.70;;
53203;SDS011;39086;54.424;18.456;2023-02-10T04:18:38;27.75;;;12.55;;
53203;SDS011;39086;54.424;18.456;2023-02-10T04:19:42;29.20;;;13.27;;
53203;SDS011;39086;54.424;18.456;2023-02-10T04:20:45;28.80;;;11.93;;
53203;SDS011;39086;54.424;18.456;2023-02-10T04:21:48;32.55;;;13.23;;
53203;SDS011;39086;54.424;18.456;2023-02-10T04:22:58;31.70;;;13.90;;
53203;SDS011;39086;54.424;18.456;2023-02-10T04:24:02;27.15;;;13.00;;
53203;SDS011;39086;54.424;18.456;2023-02-10T04:25:04;28.45;;;13.18;;
53203;SDS011;39086;54.424;18.456;2023-02-10T04:26:08;28.48;;;13.02;;
53203;SDS011;39086;54.424;18.456;2023-02-10T04:27:10;26.17;;;11.80;;
53203;SDS011;39086;54.424;18.456;2023-02-10T04:28:21;27.65;;;12.27;;
53203;SDS011;39086;54.424;18.456;2023-02-10T04:29:23;30.95;;;13.32;;
53203;SDS011;39086;54.424;18.456;2023-02-10T04:30:27;32.97;;;13.30;;
53203;SDS011;39086;54.424;18.456;2023-02-10T04:31:29;30.23;;;13.18;;
53203;SDS011;39086;54.424;18.456;2023-02-10T04:32:40;33.50;;;13.05;;
53203;SDS011;39086;54.424;18.456;2023-02-10T04:33:42;28.52;;;12.65;;
53203;SDS011;39086;54.424;18.456;2023-02-10T04:34:47;31.90;;;13.68;;
53203;SDS011;39086;54.424;18.456;2023-02-10T04:35:56;30.83;;;12.88;;
53203;SDS011;39086;54.424;18.456;2023-02-10T04:37:00;34.08;;;13.77;;
53203;SDS011;39086;54.424;18.456;2023-02-10T04:38:10;29.67;;;13.65;;
53203;SDS011;39086;54.424;18.456;2023-02-10T04:39:12;27.80;;;13.52;;
53203;SDS011;39086;54.424;18.456;2023-02-10T04:40:16;28.13;;;11.48;;
53203;SDS011;39086;54.424;18.456;2023-02-10T04:41:18;32.95;;;14.38;;
53203;SDS011;39086;54.424;18.456;2023-02-10T04:42:22;34.60;;;14.10;;
53203;SDS011;39086;54.424;18.456;2023-02-10T04:43:38;35.97;;;14.43;;
53203;SDS011;39086;54.424;18.456;2023-02-10T04:44:41;27.27;;;12.35;;
53203;SDS011;39086;54.424;18.456;2023-02-10T04:45:44;39.35;;;14.20;;
53203;SDS011;39086;54.424;18.456;2023-02-10T04:46:48;34.40;;;13.13;;
53203;SDS011;39086;54.424;18.456;2023-02-10T04:47:51;28.88;;;13.60;;
53203;SDS011;39086;54.424;18.456;2023-02-10T04:49:02;36.25;;;13.88;;
53203;SDS011;39086;54.424;18.456;2023-02-10T04:50:12;35.20;;;14.30;;
53203;SDS011;39086;54.424;18.456;2023-02-10T04:51:16;38.08;;;14.65;;
53203;SDS011;39086;54.424;18.456;2023-02-10T04:52:25;38.65;;;14.93;;
53203;SDS011;39086;54.424;18.456;2023-02-10T04:53:43;37.03;;;14.90;;
53203;SDS011;39086;54.424;18.456;2023-02-10T04:54:45;33.05;;;13.80;;
53203;SDS011;39086;54.424;18.456;2023-02-10T04:55:56;34.72;;;14.13;;
53203;SDS011;39086;54.424;18.456;2023-02-10T04:56:58;34.08;;;14.25;;
53203;SDS011;39086;54.424;18.456;2023-02-10T04:58:02;38.92;;;15.40;;
53203;SDS011;39086;54.424;18.456;2023-02-10T04:59:04;36.60;;;14.93;;
53203;SDS011;39086;54.424;18.456;2023-02-10T05:00:15;33.78;;;14.82;;
53203;SDS011;39086;54.424;18.456;2023-02-10T05:01:18;32.13;;;13.75;;
53203;SDS011;39086;54.424;18.456;2023-02-10T05:02:21;34.58;;;14.77;;
53203;SDS011;39086;54.424;18.456;2023-02-10T05:03:24;35.80;;;14.43;;
53203;SDS011;39086;54.424;18.456;2023-02-10T05:04:27;43.60;;;14.48;;
53203;SDS011;39086;54.424;18.456;2023-02-10T05:05:38;38.28;;;15.23;;
53203;SDS011;39086;54.424;18.456;2023-02-10T05:06:47;37.55;;;14.73;;
53203;SDS011;39086;54.424;18.456;2023-02-10T05:07:50;36.15;;;14.77;;
53203;SDS011;39086;54.424;18.456;2023-02-10T05:08:53;44.15;;;15.60;;
53203;SDS011;39086;54.424;18.456;2023-02-10T05:10:03;35.63;;;14.18;;
53203;SDS011;39086;54.424;18.456;2023-02-10T05:11:06;32.55;;;14.70;;
53203;SDS011;39086;54.424;18.456;2023-02-10T05:12:09;36.78;;;14.93;;
53203;SDS011;39086;54.424;18.456;2023-02-10T05:13:13;29.15;;;13.50;;
53203;SDS011;39086;54.424;18.456;2023-02-10T05:14:15;39.90;;;14.98;;
53203;SDS011;39086;54.424;18.456;2023-02-10T05:15:26;35.15;;;14.52;;
53203;SDS011;39086;54.424;18.456;2023-02-10T05:16:28;37.95;;;15.70;;
53203;SDS011;39086;54.424;18.456;2023-02-10T05:17:39;33.33;;;13.93;;
53203;SDS011;39086;54.424;18.456;2023-02-10T05:18:41;35.35;;;15.68;;
53203;SDS011;39086;54.424;18.456;2023-02-10T05:19:45;34.75;;;14.88;;
53203;SDS011;39086;54.424;18.456;2023-02-10T05:20:49;47.28;;;16.23;;
53203;SDS011;39086;54.424;18.456;2023-02-10T05:21:53;41.22;;;15.68;;
53203;SDS011;39086;54.424;18.456;2023-02-10T05:23:03;40.92;;;16.20;;
53203;SDS011;39086;54.424;18.456;2023-02-10T05:24:05;51.67;;;16.25;;
53203;SDS011;39086;54.424;18.456;2023-02-10T05:25:16;50.03;;;17.60;;
53203;SDS011;39086;54.424;18.456;2023-02-10T05:26:18;40.75;;;17.85;;
53203;SDS011;39086;54.424;18.456;2023-02-10T05:27:28;41.22;;;16.63;;
53203;SDS011;39086;54.424;18.456;2023-02-10T05:28:30;40.50;;;16.58;;
53203;SDS011;39086;54.424;18.456;2023-02-10T05:29:41;41.05;;;15.65;;
53203;SDS011;39086;54.424;18.456;2023-02-10T05:30:43;36.78;;;15.23;;
53203;SDS011;39086;54.424;18.456;2023-02-10T05:31:47;36.58;;;14.75;;
53203;SDS011;39086;54.424;18.456;2023-02-10T05:32:50;41.72;;;15.65;;
53203;SDS011;39086;54.424;18.456;2023-02-10T05:34:00;32.42;;;14.68;;
53203;SDS011;39086;54.424;18.456;2023-02-10T05:35:03;42.33;;;16.67;;
53203;SDS011;39086;54.424;18.456;2023-02-10T05:36:07;37.75;;;14.00;;
53203;SDS011;39086;54.424;18.456;2023-02-10T05:37:11;34.33;;;15.35;;
53203;SDS011;39086;54.424;18.456;2023-02-10T05:38:14;33.35;;;15.00;;
53203;SDS011;39086;54.424;18.456;2023-02-10T05:39:24;39.97;;;15.35;;
53203;SDS011;39086;54.424;18.456;2023-02-10T05:40:27;43.65;;;15.80;;
53203;SDS011;39086;54.424;18.456;2023-02-10T05:41:30;33.80;;;14.25;;
53203;SDS011;39086;54.424;18.456;2023-02-10T05:42:36;38.72;;;15.27;;
53203;SDS011;39086;54.424;18.456;2023-02-10T05:43:39;34.30;;;14.82;;
53203;SDS011;39086;54.424;18.456;2023-02-10T05:44:48;40.45;;;15.40;;
53203;SDS011;39086;54.424;18.456;2023-02-10T05:45:51;39.55;;;14.68;;
53203;SDS011;39086;54.424;18.456;2023-02-10T05:47:00;41.78;;;15.10;;
53203;SDS011;39086;54.424;18.456;2023-02-10T05:48:03;29.67;;;14.48;;
53203;SDS011;39086;54.424;18.456;2023-02-10T05:49:06;39.58;;;15.77;;
53203;SDS011;39086;54.424;18.456;2023-02-10T05:50:10;35.63;;;14.98;;
53203;SDS011;39086;54.424;18.456;2023-02-10T05:51:15;37.47;;;15.23;;
53203;SDS011;39086;54.424;18.456;2023-02-10T05:52:31;39.80;;;15.30;;
53203;SDS011;39086;54.424;18.456;2023-02-10T05:53:49;40.72;;;15.77;;
53203;SDS011;39086;54.424;18.456;2023-02-10T05:54:51;34.47;;;13.95;;
53203;SDS011;39086;54.424;18.456;2023-02-10T05:56:02;38.00;;;15.10;;
53203;SDS011;39086;54.424;18.456;2023-02-10T05:57:04;35.58;;;14.80;;
53203;SDS011;39086;54.424;18.456;2023-02-10T05:58:08;38.10;;;15.63;;
53203;SDS011;39086;54.424;18.456;2023-02-10T05:59:10;33.97;;;14.50;;
53203;SDS011;39086;54.424;18.456;2023-02-10T06:00:16;37.53;;;14.25;;
53203;SDS011;39086;54.424;18.456;2023-02-10T06:01:25;32.30;;;14.15;;
53203;SDS011;39086;54.424;18.456;2023-02-10T06:02:28;33.40;;;14.00;;
53203;SDS011;39086;54.424;18.456;2023-02-10T06:03:32;38.88;;;14.35;;
53203;SDS011;39086;54.424;18.456;2023-02-10T06:04:34;36.55;;;14.38;;
53203;SDS011;39086;54.424;18.456;2023-02-10T06:05:38;36.10;;;13.88;;
53203;SDS011;39086;54.424;18.456;2023-02-10T06:06:49;38.05;;;13.35;;
53203;SDS011;39086;54.424;18.456;2023-02-10T06:07:53;37.75;;;14.45;;
53203;SDS011;39086;54.424;18.456;2023-02-10T06:08:57;38.90;;;14.68;;
53203;SDS011;39086;54.424;18.456;2023-02-10T06:10:00;23.80;;;11.60;;
53203;SDS011;39086;54.424;18.456;2023-02-10T06:11:03;33.65;;;13.48;;
53203;SDS011;39086;54.424;18.456;2023-02-10T06:12:13;34.55;;;14.93;;
53203;SDS011;39086;54.424;18.456;2023-02-10T06:13:16;41.47;;;14.25;;
53203;SDS011;39086;54.424;18.456;2023-02-10T06:14:19;31.50;;;13.10;;
53203;SDS011;39086;54.424;18.456;2023-02-10T06:15:22;32.10;;;14.55;;
53203;SDS011;39086;54.424;18.456;2023-02-10T06:16:25;42.00;;;15.05;;
53203;SDS011;39086;54.424;18.456;2023-02-10T06:17:35;32.50;;;13.60;;
53203;SDS011;39086;54.424;18.456;2023-02-10T06:18:38;37.63;;;13.77;;
53203;SDS011;39086;54.424;18.456;2023-02-10T06:19:48;33.90;;;13.82;;
53203;SDS011;39086;54.424;18.456;2023-02-10T06:20:51;32.28;;;12.82;;
53203;SDS011;39086;54.424;18.456;2023-02-10T06:21:55;32.22;;;14.10;;
53203;SDS011;39086;54.424;18.456;2023-02-10T06:22:59;33.42;;;12.18;;
53203;SDS011;39086;54.424;18.456;2023-02-10T06:24:02;37.45;;;14.15;;
53203;SDS011;39086;54.424;18.456;2023-02-10T06:25:12;32.47;;;12.82;;
53203;SDS011;39086;54.424;18.456;2023-02-10T06:26:15;33.22;;;12.48;;